createdAt,value
2023-03-04T00:00:48.777Z,73.47
2023-03-04T00:03:16.212Z,73.67
2023-03-04T00:05:44.813Z,73.85
2023-03-04T00:08:13.486Z,74.53
2023-03-04T00:10:39.870Z,74.00
2023-03-04T00:13:06.264Z,74.14
2023-03-04T00:15:32.615Z,74.03
2023-03-04T00:17:58.949Z,74.61
2023-03-04T00:20:27.539Z,75.13
2023-03-04T00:22:57.005Z,74.96
2023-03-04T00:25:26.151Z,74.86
2023-03-04T00:27:52.486Z,74.84
2023-03-04T00:30:18.934Z,75.27
2023-03-04T00:32:45.264Z,75.32
2023-03-04T00:35:11.668Z,75.35
2023-03-04T00:37:38.075Z,75.24
2023-03-04T00:40:05.071Z,75.86
2023-03-04T00:42:31.389Z,75.56
2023-03-04T00:45:00.377Z,75.58
2023-03-04T00:47:26.859Z,75.20
2023-03-04T00:49:53.236Z,75.65
2023-03-04T00:52:19.573Z,76.19
2023-03-04T00:54:45.926Z,76.25
2023-03-04T00:57:12.304Z,76.71
2023-03-04T00:59:41.439Z,76.54
2023-03-04T01:02:07.969Z,76.70
2023-03-04T01:04:34.334Z,76.45
2023-03-04T01:07:03.253Z,75.70
2023-03-04T01:09:29.821Z,76.12
2023-03-04T01:11:59.582Z,76.18
2023-03-04T01:14:28.349Z,76.83
2023-03-04T01:16:54.716Z,75.68
2023-03-04T01:19:21.286Z,76.61
2023-03-04T01:21:47.649Z,76.50
2023-03-04T01:24:13.958Z,76.39
2023-03-04T01:26:40.443Z,77.14
2023-03-04T01:29:06.827Z,77.42
2023-03-04T01:31:43.403Z,76.65
2023-03-04T01:34:09.749Z,75.64
2023-03-04T01:36:36.191Z,75.68
2023-03-04T01:39:03.071Z,75.96
2023-03-04T01:41:31.316Z,76.78
2023-03-04T01:43:59.790Z,75.40
2023-03-04T01:46:28.700Z,75.32
2023-03-04T01:49:03.012Z,75.28
2023-03-04T01:51:29.617Z,75.17
2023-03-04T01:53:56.086Z,75.14
2023-03-04T01:56:23.522Z,75.01
2023-03-04T01:59:10.345Z,75.14
2023-03-04T02:01:37.903Z,74.79
2023-03-04T02:04:04.918Z,74.89
2023-03-04T02:06:31.534Z,73.61
2023-03-04T02:09:00.752Z,73.73
2023-03-04T02:11:33.723Z,74.39
2023-03-04T02:14:00.253Z,74.58
2023-03-04T02:16:27.076Z,74.96
2023-03-04T02:18:53.551Z,75.10
2023-03-04T02:21:31.518Z,74.34
2023-03-04T02:24:00.825Z,74.56
2023-03-04T02:26:29.130Z,74.59
2023-03-04T02:28:58.166Z,74.87
2023-03-04T02:31:33.730Z,73.82
2023-03-04T02:34:16.211Z,72.90
2023-03-04T02:36:46.825Z,73.28
2023-03-04T02:39:21.542Z,74.00
2023-03-04T02:41:52.198Z,73.94
2023-03-04T02:44:22.943Z,74.43
2023-03-04T02:46:53.756Z,74.10
2023-03-04T02:49:21.583Z,74.68
2023-03-04T02:51:53.561Z,75.17
2023-03-04T02:54:25.575Z,74.64
2023-03-04T02:56:57.018Z,74.56
2023-03-04T02:59:25.901Z,75.20
2023-03-04T03:01:52.659Z,75.07
2023-03-04T03:04:25.216Z,74.31
2023-03-04T03:06:51.615Z,75.57
2023-03-04T03:09:18.699Z,74.35
2023-03-04T03:11:45.301Z,74.19
2023-03-04T03:14:11.727Z,74.34
2023-03-04T03:16:38.116Z,74.68
2023-03-04T03:19:04.460Z,73.78
2023-03-04T03:21:33.098Z,73.36
2023-03-04T03:23:59.446Z,73.72
2023-03-04T03:26:28.309Z,73.75
2023-03-04T03:28:59.623Z,73.42
2023-03-04T03:31:25.989Z,73.36
2023-03-04T03:33:56.994Z,73.95
2023-03-04T03:36:29.342Z,74.23
2023-03-04T03:38:55.696Z,73.81
2023-03-04T03:41:28.471Z,73.57
2023-03-04T03:43:54.934Z,73.82
2023-03-04T03:46:28.699Z,73.31
2023-03-04T03:48:54.997Z,73.72
2023-03-04T03:51:21.353Z,74.94
2023-03-04T03:53:47.735Z,73.53
2023-03-04T03:56:14.065Z,74.53
2023-03-04T03:58:40.424Z,74.86
2023-03-04T04:01:06.734Z,74.63
2023-03-04T04:03:33.068Z,74.98
2023-03-04T04:05:59.460Z,75.89
2023-03-04T04:08:25.922Z,76.67
2023-03-04T04:10:52.288Z,77.30
2023-03-04T04:13:18.618Z,77.58
2023-03-04T04:15:44.931Z,78.38
2023-03-04T04:18:13.582Z,78.94
2023-03-04T04:20:41.808Z,78.60
2023-03-04T04:23:08.227Z,79.00
2023-03-04T04:25:37.103Z,78.23
2023-03-04T04:28:03.412Z,78.54
2023-03-04T04:30:29.915Z,78.34
2023-03-04T04:32:57.508Z,78.53
2023-03-04T04:35:23.853Z,77.82
2023-03-04T04:37:55.859Z,77.92
2023-03-04T04:40:22.299Z,78.52
2023-03-04T04:42:48.608Z,78.39
2023-03-04T04:45:14.976Z,78.02
2023-03-04T04:47:43.791Z,77.89
2023-03-04T04:50:10.746Z,76.76
2023-03-04T04:52:37.074Z,76.89
2023-03-04T04:55:03.814Z,76.33
2023-03-04T04:57:36.588Z,76.46
2023-03-04T05:00:05.163Z,77.52
2023-03-04T05:02:33.991Z,77.36
2023-03-04T05:05:00.340Z,76.05
2023-03-04T05:07:26.717Z,75.77
2023-03-04T05:09:53.098Z,75.55
2023-03-04T05:12:19.450Z,76.09
2023-03-04T05:14:48.209Z,76.67
2023-03-04T05:17:16.674Z,76.92
2023-03-04T05:19:47.326Z,77.72
2023-03-04T05:22:13.606Z,77.88
2023-03-04T05:24:39.934Z,77.36
2023-03-04T05:27:06.343Z,78.50
2023-03-04T05:29:32.964Z,78.06
2023-03-04T05:31:59.424Z,77.67
2023-03-04T05:34:25.742Z,78.15
2023-03-04T05:36:55.936Z,78.32
2023-03-04T05:39:24.516Z,78.45
2023-03-04T05:41:50.929Z,78.41
2023-03-04T05:44:17.405Z,78.53
2023-03-04T05:46:46.337Z,78.05
2023-03-04T05:49:12.983Z,78.76
2023-03-04T05:51:40.528Z,78.83
2023-03-04T05:54:09.506Z,78.25
2023-03-04T05:56:36.179Z,78.48
2023-03-04T05:59:02.583Z,78.63
2023-03-04T06:01:31.421Z,79.49
2023-03-04T06:03:57.955Z,79.12
2023-03-04T06:06:24.472Z,78.84
2023-03-04T06:08:50.931Z,79.29
2023-03-04T06:11:17.450Z,79.32
2023-03-04T06:13:43.902Z,78.83
2023-03-04T06:16:10.390Z,79.44
2023-03-04T06:18:39.221Z,79.48
2023-03-04T06:21:07.794Z,80.13
2023-03-04T06:23:38.105Z,80.14
2023-03-04T06:26:04.971Z,79.32
2023-03-04T06:28:31.316Z,80.21
2023-03-04T06:30:58.446Z,80.34
2023-03-04T06:33:31.457Z,80.31
2023-03-04T06:35:57.775Z,80.91
2023-03-04T06:38:25.070Z,80.66
2023-03-04T06:40:57.125Z,80.97
2023-03-04T06:43:28.566Z,81.16
2023-03-04T06:45:54.942Z,82.41
2023-03-04T06:48:27.896Z,81.99
2023-03-04T06:50:54.236Z,82.30
2023-03-04T06:53:21.843Z,81.99
2023-03-04T06:55:51.684Z,82.42
2023-03-04T06:58:18.241Z,82.15
2023-03-04T07:00:56.114Z,82.43
2023-03-04T07:03:22.571Z,82.38
2023-03-04T07:05:49.058Z,81.96
2023-03-04T07:08:15.498Z,81.25
2023-03-04T07:10:45.437Z,81.26
2023-03-04T07:13:13.549Z,80.91
2023-03-04T07:15:39.832Z,80.46
2023-03-04T07:18:09.629Z,80.80
2023-03-04T07:20:39.915Z,82.24
2023-03-04T07:23:06.350Z,83.90
2023-03-04T07:25:34.148Z,83.88
2023-03-04T07:28:00.513Z,83.23
2023-03-04T07:30:26.868Z,83.12
2023-03-04T07:32:53.806Z,83.06
2023-03-04T07:35:20.351Z,81.23
2023-03-04T07:37:51.544Z,80.28
2023-03-04T07:40:25.697Z,80.01
2023-03-04T07:42:58.905Z,80.28
2023-03-04T07:45:25.614Z,79.70
2023-03-04T07:47:54.630Z,79.23
2023-03-04T07:50:23.967Z,79.97
2023-03-04T07:52:50.931Z,79.97
2023-03-04T07:55:20.168Z,79.27
2023-03-04T07:57:47.641Z,79.06
2023-03-04T08:00:16.549Z,79.10
2023-03-04T08:02:43.847Z,78.77
2023-03-04T08:05:10.318Z,77.49
2023-03-04T08:07:36.655Z,77.59
2023-03-04T08:10:06.385Z,78.18
2023-03-04T08:12:33.017Z,77.64
2023-03-04T08:14:59.336Z,77.75
2023-03-04T08:17:25.702Z,76.95
2023-03-04T08:19:53.259Z,76.56
2023-03-04T08:22:19.558Z,77.10
2023-03-04T08:24:47.190Z,77.10
2023-03-04T08:27:13.675Z,78.62
2023-03-04T08:29:42.510Z,80.51
2023-03-04T08:32:09.259Z,82.30
2023-03-04T08:34:41.652Z,83.96
2023-03-04T08:37:10.552Z,84.55
2023-03-04T08:39:37.212Z,82.47
2023-03-04T08:42:03.991Z,81.00
2023-03-04T08:44:30.312Z,80.22
2023-03-04T08:47:05.337Z,79.34
2023-03-04T08:49:31.723Z,77.26
2023-03-04T08:51:58.330Z,77.79
2023-03-04T08:54:24.759Z,76.90
2023-03-04T08:56:51.089Z,77.49
2023-03-04T08:59:17.503Z,76.54
2023-03-04T09:01:43.984Z,78.03
2023-03-04T09:04:10.929Z,79.91
2023-03-04T09:06:39.623Z,81.41
2023-03-04T09:09:07.904Z,83.26
2023-03-04T09:11:34.581Z,83.80
2023-03-04T09:14:00.994Z,85.59
2023-03-04T09:16:29.785Z,83.31
2023-03-04T09:18:56.244Z,81.39
2023-03-04T09:21:23.209Z,81.83
2023-03-04T09:23:52.278Z,79.71
2023-03-04T09:26:24.770Z,78.29
2023-03-04T09:28:54.494Z,76.04
2023-03-04T09:31:23.912Z,75.08
2023-03-04T09:33:51.711Z,75.94
2023-03-04T09:36:19.818Z,74.15
2023-03-04T09:38:51.444Z,77.57
2023-03-04T09:41:34.314Z,79.45
2023-03-04T09:44:07.963Z,79.75
2023-03-04T09:46:38.633Z,81.44
2023-03-04T09:49:07.275Z,80.96
2023-03-04T09:52:08.543Z,77.92
2023-03-04T09:54:53.570Z,79.74
2023-03-04T09:57:51.862Z,77.95
2023-03-04T10:00:27.315Z,78.38
2023-03-04T10:03:08.577Z,77.70
2023-03-04T10:05:39.326Z,75.75
2023-03-04T10:08:30.503Z,72.15
2023-03-04T10:10:59.411Z,73.40
2023-03-04T10:14:03.350Z,72.16
2023-03-04T10:16:38.808Z,71.56
2023-03-04T10:19:26.079Z,71.33
2023-03-04T10:21:52.917Z,70.79
2023-03-04T10:24:26.824Z,70.21
2023-03-04T10:26:57.994Z,69.77
2023-03-04T10:29:24.825Z,69.32
2023-03-04T10:31:51.609Z,69.93
2023-03-04T10:34:18.660Z,69.69
2023-03-04T10:37:04.848Z,70.45
2023-03-04T10:39:37.031Z,68.86
2023-03-04T10:42:14.910Z,69.83
2023-03-04T10:44:44.873Z,72.82
2023-03-04T10:47:15.606Z,71.64
2023-03-04T10:49:56.490Z,71.80
2023-03-04T10:52:31.983Z,71.49
2023-03-04T10:55:05.585Z,71.65
2023-03-04T10:57:41.296Z,69.91
2023-03-04T11:00:29.153Z,70.08
2023-03-04T11:03:23.436Z,70.05
2023-03-04T11:05:50.511Z,71.24
2023-03-04T11:08:19.751Z,70.42
2023-03-04T11:10:46.925Z,68.91
2023-03-04T11:13:32.063Z,69.73
2023-03-04T11:16:23.473Z,73.28
2023-03-04T11:18:55.185Z,74.10
2023-03-04T11:21:28.908Z,77.12
2023-03-04T11:24:03.427Z,80.83
2023-03-04T11:27:13.922Z,83.54
2023-03-04T11:29:59.576Z,86.64
2023-03-04T11:32:30.378Z,84.74
2023-03-04T11:35:05.122Z,84.64
2023-03-04T11:37:39.430Z,85.00
2023-03-04T11:40:12.432Z,85.88
2023-03-04T11:42:54.391Z,86.24
2023-03-04T11:45:28.982Z,86.36
2023-03-04T11:48:33.965Z,84.48
2023-03-04T11:51:13.365Z,85.27
2023-03-04T11:53:56.509Z,79.45
2023-03-04T11:56:42.233Z,77.42
2023-03-04T11:59:26.046Z,75.36
2023-03-04T12:01:52.668Z,69.35
2023-03-04T12:04:28.294Z,68.19
2023-03-04T12:07:16.434Z,66.71
2023-03-04T12:09:59.528Z,65.92
2023-03-04T12:12:37.027Z,64.28
2023-03-04T12:15:42.400Z,63.95
2023-03-04T12:18:52.562Z,68.53
2023-03-04T12:21:33.387Z,69.61
2023-03-04T12:24:18.186Z,70.13
2023-03-04T12:27:09.341Z,71.61
2023-03-04T12:29:57.323Z,75.00
2023-03-04T12:32:44.786Z,77.61
2023-03-04T12:35:36.505Z,78.69
2023-03-04T12:38:12.521Z,77.38
2023-03-04T12:40:47.687Z,77.45
2023-03-04T12:43:47.828Z,74.80
2023-03-04T12:46:25.947Z,72.01
2023-03-04T12:49:10.193Z,70.38
2023-03-04T12:51:54.737Z,67.06
2023-03-04T12:54:37.036Z,68.27
2023-03-04T12:57:17.660Z,67.60
2023-03-04T12:59:57.308Z,67.82
2023-03-04T13:02:35.699Z,63.87
2023-03-04T13:05:27.824Z,61.99
2023-03-04T13:08:13.101Z,60.25
2023-03-04T13:10:42.268Z,64.74
2023-03-04T13:13:50.873Z,65.22
2023-03-04T13:16:20.466Z,67.96
2023-03-04T13:18:48.030Z,69.62
2023-03-04T13:21:30.588Z,71.96
2023-03-04T13:23:59.254Z,72.99
2023-03-04T13:26:34.567Z,75.30
2023-03-04T13:29:13.251Z,76.74
2023-03-04T13:31:59.790Z,78.73
2023-03-04T13:34:54.097Z,78.49
2023-03-04T13:37:34.194Z,77.43
2023-03-04T13:40:22.470Z,75.60
2023-03-04T13:42:49.546Z,73.50
2023-03-04T13:45:36.615Z,73.50
2023-03-04T13:48:08.315Z,72.87
2023-03-04T13:50:49.193Z,73.05
2023-03-04T13:53:30.801Z,70.74
2023-03-04T13:56:37.566Z,70.54
2023-03-04T13:59:09.415Z,70.11
2023-03-04T14:01:37.063Z,71.19
2023-03-04T14:04:16.515Z,71.12
2023-03-04T14:06:44.687Z,70.93
2023-03-04T14:09:19.615Z,71.46
2023-03-04T14:11:47.032Z,70.74
2023-03-04T14:14:18.415Z,70.76
2023-03-04T14:16:50.504Z,69.30
2023-03-04T14:19:24.497Z,67.75
2023-03-04T14:21:51.141Z,67.94
2023-03-04T14:24:20.052Z,67.87
2023-03-04T14:26:47.568Z,68.30
2023-03-04T14:29:28.374Z,67.71
2023-03-04T14:31:56.538Z,67.84
2023-03-04T14:34:34.062Z,67.32
2023-03-04T14:37:00.787Z,67.34
2023-03-04T14:39:30.559Z,67.61
2023-03-04T14:42:04.014Z,67.34
2023-03-04T14:44:34.253Z,68.15
2023-03-04T14:47:08.981Z,67.29
2023-03-04T14:49:36.897Z,66.95
2023-03-04T14:52:03.337Z,67.54
2023-03-04T14:54:37.282Z,65.31
2023-03-04T14:57:21.250Z,66.64
2023-03-04T14:59:47.723Z,67.08
2023-03-04T15:02:31.361Z,66.60
2023-03-04T15:05:00.388Z,67.59
2023-03-04T15:07:34.432Z,67.84
2023-03-04T15:10:02.365Z,68.37
2023-03-04T15:12:31.909Z,69.20
2023-03-04T15:15:00.592Z,69.72
2023-03-04T15:17:34.434Z,70.57
2023-03-04T15:20:05.891Z,70.89
2023-03-04T15:22:54.229Z,72.08
2023-03-04T15:25:21.764Z,71.95
2023-03-04T15:27:49.708Z,72.03
2023-03-04T15:30:26.014Z,72.41
2023-03-04T15:32:56.797Z,73.33
2023-03-04T15:35:25.341Z,73.60
2023-03-04T15:37:56.168Z,72.25
2023-03-04T15:40:30.251Z,71.48
2023-03-04T15:42:58.391Z,70.43
2023-03-04T15:45:26.734Z,70.96
2023-03-04T15:47:53.185Z,69.67
2023-03-04T15:50:20.859Z,70.29
2023-03-04T15:52:51.230Z,70.18
2023-03-04T15:55:20.360Z,69.33
2023-03-04T15:57:53.298Z,71.12
2023-03-04T16:00:20.052Z,69.96
2023-03-04T16:02:48.631Z,70.11
2023-03-04T16:05:15.873Z,70.62
2023-03-04T16:07:46.003Z,70.79
2023-03-04T16:10:21.444Z,71.77
2023-03-04T16:12:48.423Z,70.47
2023-03-04T16:15:22.453Z,71.58
2023-03-04T16:17:49.012Z,70.93
2023-03-04T16:20:18.971Z,70.61
2023-03-04T16:22:51.857Z,69.80
2023-03-04T16:25:18.864Z,69.77
2023-03-04T16:27:46.768Z,69.91
2023-03-04T16:30:19.236Z,69.35
2023-03-04T16:32:45.985Z,68.71
2023-03-04T16:35:13.996Z,70.24
2023-03-04T16:37:40.794Z,70.42
2023-03-04T16:40:14.884Z,69.65
2023-03-04T16:42:44.210Z,69.31
2023-03-04T16:45:20.678Z,68.74
2023-03-04T16:47:47.291Z,67.61
2023-03-04T16:50:23.419Z,68.81
2023-03-04T16:52:49.870Z,68.41
2023-03-04T16:55:29.159Z,68.88
2023-03-04T16:57:57.022Z,68.69
2023-03-04T17:00:24.879Z,67.67
2023-03-04T17:02:57.593Z,67.66
2023-03-04T17:05:27.573Z,68.29
2023-03-04T17:07:54.009Z,67.41
2023-03-04T17:10:21.427Z,67.68
2023-03-04T17:13:00.663Z,67.24
2023-03-04T17:15:29.783Z,68.11
2023-03-04T17:17:57.718Z,68.72
2023-03-04T17:20:24.371Z,68.64
2023-03-04T17:22:53.169Z,69.99
2023-03-04T17:25:22.606Z,69.63
2023-03-04T17:27:48.946Z,71.18
2023-03-04T17:30:26.785Z,71.11
2023-03-04T17:32:53.172Z,71.29
2023-03-04T17:35:22.041Z,71.83
2023-03-04T17:37:48.519Z,71.67
2023-03-04T17:40:15.530Z,71.49
2023-03-04T17:42:45.738Z,71.41
2023-03-04T17:45:12.200Z,71.78
2023-03-04T17:47:38.771Z,72.24
2023-03-04T17:50:05.773Z,73.44
2023-03-04T17:52:35.558Z,73.86
2023-03-04T17:55:03.139Z,74.03
2023-03-04T17:57:29.488Z,74.41
2023-03-04T17:59:57.027Z,74.88
2023-03-04T18:02:26.864Z,74.46
2023-03-04T18:04:53.427Z,75.65
2023-03-04T18:07:19.918Z,76.01
2023-03-04T18:09:46.303Z,75.83
2023-03-04T18:12:14.952Z,76.40
2023-03-04T18:14:42.068Z,75.92
2023-03-04T18:17:15.881Z,76.37
2023-03-04T18:19:42.638Z,76.39
2023-03-04T18:22:12.295Z,75.96
2023-03-04T18:24:38.886Z,76.23
2023-03-04T18:27:08.836Z,76.45
2023-03-04T18:29:35.655Z,76.51
2023-03-04T18:32:02.859Z,75.57
2023-03-04T18:34:37.306Z,76.46
2023-03-04T18:37:04.490Z,76.35
2023-03-04T18:39:32.090Z,76.56
2023-03-04T18:42:01.056Z,75.78
2023-03-04T18:44:32.115Z,76.18
2023-03-04T18:47:01.463Z,76.58
2023-03-04T18:49:29.737Z,75.53
2023-03-04T18:51:58.555Z,76.17
2023-03-04T18:54:25.205Z,76.04
2023-03-04T18:56:56.297Z,76.78
2023-03-04T18:59:31.001Z,76.14
2023-03-04T19:02:00.631Z,76.18
2023-03-04T19:04:31.456Z,76.62
2023-03-04T19:06:57.827Z,76.71
2023-03-04T19:09:24.374Z,76.45
2023-03-04T19:11:52.767Z,77.11
2023-03-04T19:14:19.156Z,77.46
2023-03-04T19:16:46.901Z,76.86
2023-03-04T19:19:13.341Z,77.15
2023-03-04T19:21:39.851Z,77.27
2023-03-04T19:24:06.607Z,78.12
2023-03-04T19:26:35.915Z,78.18
2023-03-04T19:29:11.010Z,78.93
2023-03-04T19:31:41.172Z,79.21
2023-03-04T19:34:11.602Z,79.95
2023-03-04T19:36:38.303Z,79.76
2023-03-04T19:39:08.690Z,79.93
2023-03-04T19:41:35.354Z,80.27
2023-03-04T19:44:01.783Z,81.30
2023-03-04T19:46:30.264Z,80.82
2023-03-04T19:48:56.586Z,81.17
2023-03-04T19:51:28.090Z,81.79
2023-03-04T19:53:56.045Z,82.49
2023-03-04T19:56:25.105Z,82.93
2023-03-04T19:59:00.721Z,82.81
2023-03-04T20:01:33.107Z,82.75
2023-03-04T20:04:05.307Z,82.49
2023-03-04T20:06:36.571Z,83.08
2023-03-04T20:09:03.121Z,82.76
2023-03-04T20:11:56.299Z,82.81
2023-03-04T20:14:26.712Z,83.07
2023-03-04T20:16:59.449Z,82.89
2023-03-04T20:19:26.203Z,82.37
2023-03-04T20:21:53.940Z,83.16
2023-03-04T20:24:20.306Z,83.55
2023-03-04T20:26:52.974Z,84.28
2023-03-04T20:29:19.536Z,83.17
2023-03-04T20:31:45.927Z,84.41
2023-03-04T20:34:13.124Z,83.77
2023-03-04T20:36:45.170Z,84.22
2023-03-04T20:39:25.835Z,84.19
2023-03-04T20:41:54.837Z,83.69
2023-03-04T20:44:21.205Z,83.16
2023-03-04T20:46:47.550Z,83.70
2023-03-04T20:49:20.233Z,83.73
2023-03-04T20:51:46.728Z,84.25
2023-03-04T20:54:13.252Z,83.88
2023-03-04T20:56:39.604Z,84.09
2023-03-04T20:59:07.550Z,84.15
2023-03-04T21:01:36.393Z,84.84
2023-03-04T21:04:03.491Z,84.19
2023-03-04T21:06:29.959Z,84.68
2023-03-04T21:09:00.256Z,84.24
2023-03-04T21:11:26.718Z,83.98
2023-03-04T21:13:56.509Z,84.20
2023-03-04T21:16:28.160Z,84.39
2023-03-04T21:18:54.690Z,84.33
2023-03-04T21:21:25.950Z,84.02
2023-03-04T21:23:55.550Z,84.40
2023-03-04T21:26:24.163Z,84.85
2023-03-04T21:28:54.595Z,84.92
2023-03-04T21:31:28.449Z,84.91
2023-03-04T21:33:56.348Z,85.34
2023-03-04T21:36:23.012Z,84.84
2023-03-04T21:38:49.574Z,85.38
2023-03-04T21:41:20.389Z,85.21
2023-03-04T21:43:48.461Z,85.96
2023-03-04T21:46:17.565Z,86.17
2023-03-04T21:48:46.410Z,86.03
2023-03-04T21:51:16.975Z,86.11
2023-03-04T21:53:46.070Z,85.41
2023-03-04T21:56:14.772Z,85.47
2023-03-04T21:58:41.220Z,85.61
2023-03-04T22:01:16.262Z,85.17
2023-03-04T22:03:42.994Z,85.41
2023-03-04T22:06:12.879Z,85.15
2023-03-04T22:08:39.584Z,85.11
2023-03-04T22:11:08.127Z,85.54
2023-03-04T22:13:34.833Z,85.18
2023-03-04T22:16:07.451Z,85.11
2023-03-04T22:18:39.855Z,85.44
2023-03-04T22:21:14.889Z,85.70
2023-03-04T22:23:43.615Z,84.74
2023-03-04T22:26:19.262Z,85.63
2023-03-04T22:28:48.968Z,85.70
2023-03-04T22:31:24.446Z,85.44
2023-03-04T22:33:50.989Z,84.38
2023-03-04T22:36:17.505Z,84.51
2023-03-04T22:38:46.232Z,84.06
2023-03-04T22:41:17.084Z,84.36
2023-03-04T22:43:46.402Z,83.99
2023-03-04T22:46:12.736Z,83.65
2023-03-04T22:48:39.203Z,83.27
2023-03-04T22:51:07.401Z,83.64
2023-03-04T22:53:36.786Z,83.64
2023-03-04T22:56:08.460Z,83.36
2023-03-04T22:58:34.972Z,83.65
2023-03-04T23:01:01.706Z,83.25
2023-03-04T23:03:28.715Z,83.67
2023-03-04T23:06:07.776Z,83.65
2023-03-04T23:08:39.161Z,83.20
2023-03-04T23:11:11.279Z,83.51
2023-03-04T23:13:45.485Z,83.98
2023-03-04T23:16:16.395Z,84.25
2023-03-04T23:18:44.503Z,84.42
2023-03-04T23:21:18.711Z,85.25
2023-03-04T23:23:45.764Z,86.08
2023-03-04T23:26:23.809Z,86.68
2023-03-04T23:28:50.485Z,85.54
2023-03-04T23:31:19.314Z,86.78
2023-03-04T23:33:47.737Z,86.08
2023-03-04T23:36:18.824Z,86.14
2023-03-04T23:38:48.777Z,86.06
2023-03-04T23:41:20.777Z,85.70
2023-03-04T23:43:49.966Z,86.34
2023-03-04T23:46:18.112Z,86.51
2023-03-04T23:48:45.321Z,85.68
2023-03-04T23:51:19.173Z,85.70
2023-03-04T23:53:49.176Z,85.85
2023-03-04T23:56:37.257Z,85.87
2023-03-04T23:59:03.808Z,86.30
